Here is the Quick Look data you requested

The Data originates at the National Weather Service, and is made available here by the UAlbany Department of Atmospheric and Environmental Sciences

Surface Observations

KBDL 220451Z 17006KT 10SM FEW250 22/19 A3007 RMK AO2 SLP180 T02170189 403060156=
KBDR 220452Z AUTO 20004KT 10SM CLR 24/22 A3008 RMK AO2 SLP187 T02390222
 402940183=
KDXR 220453Z AUTO 26004KT 9SM CLR 22/20 A3010 RMK AO2 SLP188 T02220200
 402940150=
KGON 220456Z AUTO 24005KT 10SM CLR 22/21 A3009 RMK AO2 SLP188 T02220206
 402780156=
KHFD 220453Z AUTO 15003KT 10SM CLR 23/20 A3007 RMK AO2 SLP182 T02280200
 403060161=
KHVN 220453Z AUTO 21003KT 10SM CLR 23/22 A3009 RMK AO2 SLP190 T02330217
 402830161=
KIJD 220452Z AUTO 00000KT 10SM CLR 20/19 A3009 RMK AO2 SLP186 T02000189
 403000144=
KMMK 220453Z AUTO 00000KT 10SM CLR 20/19 A3008 RMK AO2 SLP185 T02000189
 402940139 TSNO=
KOXC 220451Z AUTO 23003KT 9SM CLR 21/20 A3011 RMK AO2 SLP204 T02110200
 402780150=